Capitol Logistics 41


ZBAD
Beijing Daxing International Airport
Beijing, CN
PANC
Ted Stevens Anchorage International Airport
Anchorage, US

Activity Log

Date Flight Route Aircraft Duration
01/04/2020 CPX41 SOTMU G212 BUMAT L771 KUTAL B233 GAL Q8 KKYLE KROTO4 B744 7h 54m
12/22/2019 CPX41 SOTMU G212 BUMAT L771 KUTAL B233 GAL Q8 KKYLE KROTO4 B744 7h 37m
11/29/2019 CPX41 SOTMU G212 BUMAT L771 KUTAL B233 GAL Q8 KKYLE KROTO4 B77L 8h 07m

Route Details

Aircraft Information
Primary: Boeing 747-400BCF
Backup: Boeing 777-200LRF
Route Data
Distance: 3475nm
Sched. Duration: 7h 15m
Avg. Duration: 7h 66m (+52m)
Times Flown: 3
Recm'd Route: SOTMU G212 BUMAT L771 KUTAL B233 GAL Q8 KKYLE KROTO4
Planned Altitude: 31,000ft
Origin Wx: ZBAD 061030Z 23004MPS CAVOK 20/06 Q1013 NOSIG
Dest. Wx: PANC 060953Z 16006KT 10SM FEW040 FEW060 M03/M07 A2969 RMK AO2 SLP057 T10331072 $
Notes:

Financial History
Total Freight: 528,018lbs
Average Load: 176,006lbs/flt
Fuel Used: 316,800lbs
Avg. Fuel Used: 105,600lbs/flt
Fuel Expense: $253,440
Avg. Fuel Expense: $84,480
Avg. Fuel Cost: $0.80/lbs
Total Gross Income: $4,218,864
Pilot Pay: $757
Total Expenses: $455,793
Total Revenue: $3,503,500
Average Revenue: $1,406,287.96